메인 페이지
METAR-TAF:

METAR-TAF

공항 :

Chetumal, 멕시코

위도: 18-29N, 경도: 088-18W, 고도: 9m

현재 날씨관측

예보는 32분 전, 11:42시(UTC)에 발표되었습니다.
10kt
온도 29°C
습도 79%
기압 1011 hPa
시정: 11.3km
고도 2000ft 상공 구름 많음
고도 10000ft 상공 구름 많음

METAR: MMCM 251142Z 10010KT 7SM BKN020 BKN100 29/25 A2984 RMK SLP106 5//// 900 8/520 RTS

시각: 07:14 (12:14 UTC)

예보

예보는 6 시간 28분 전, 05:46시(UTC)에 발표되었습니다.
예보 대상 시간: 25일 06시부터 26일 06시까지 (UTC)
8kt
시정: 9.7km
고도 1500ft 상공 구름 많음
연무
전환 중
25일 13시부터 25일 15시까지 (UTC)
고도 1500ft 상공 구름 보통
25일 1700시부터 (UTC)
동남동15kt
시정: 10km
고도 2000ft 상공 구름 보통
일시적
25일 19시부터 25일 23시까지 (UTC)
고도 1500ft 상공 구름 많음
26일 0300시부터 (UTC)
8kt
시정: 10km
고도 2000ft 상공 구름 보통

TAF: MMCM 250546Z 2506/2606 10008KT 6SM HZ BKN015 BECMG 2513/2515 SCT015 FM251700 12015KT P6SM SCT020 TEMPO 2519/2523 BKN015 FM260300 10008KT P6SM SCT020

4,000개 이상의 공항 관측 자료 및 예보 (METAR 및 TAF 보고).

지도상에서 검색 가능한 기상관측소가 노란 점과 빨간 점으로 표시되어 있습니다.

기상관측소 명을 보려면 표시 위로 마우스를 이동하세요.

날씨 관측과 예보를 보려면 클릭하세요.

지도 변경 : 확대하려면 엑스 표시가 있는 녹색 버튼, 축소하려면 빼기 표시가 있는 녹색 버튼, 다음 페이지의 지도를 보려면 녹색 화살표를 클릭하세요.


METAR-TAF: